sensor_id;sensor_type;location;lat;lon;timestamp;pressure;altitude;pressure_sealevel;temperature;humidity
60479;BME280;46321;48.398;11.754;2023-02-17T00:00:06;97460.09;;;6.00;63.87
60479;BME280;46321;48.398;11.754;2023-02-17T00:02:33;97456.63;;;6.00;63.65
60479;BME280;46321;48.398;11.754;2023-02-17T00:04:59;97449.59;;;6.00;63.82
60479;BME280;46321;48.398;11.754;2023-02-17T00:07:24;97454.94;;;5.99;63.75
60479;BME280;46321;48.398;11.754;2023-02-17T00:09:49;97453.28;;;5.98;63.76
60479;BME280;46321;48.398;11.754;2023-02-17T00:12:14;97443.47;;;6.00;63.58
60479;BME280;46321;48.398;11.754;2023-02-17T00:14:40;97450.66;;;5.98;63.37
60479;BME280;46321;48.398;11.754;2023-02-17T00:17:05;97451.38;;;6.00;63.42
60479;BME280;46321;48.398;11.754;2023-02-17T00:19:31;97441.81;;;5.99;63.69
60479;BME280;46321;48.398;11.754;2023-02-17T00:21:58;97454.84;;;6.00;62.93
60479;BME280;46321;48.398;11.754;2023-02-17T00:24:26;97442.66;;;5.99;62.95
60479;BME280;46321;48.398;11.754;2023-02-17T00:26:52;97441.56;;;6.02;63.50
60479;BME280;46321;48.398;11.754;2023-02-17T00:29:17;97442.50;;;6.01;63.00
60479;BME280;46321;48.398;11.754;2023-02-17T00:31:43;97444.19;;;6.02;63.45
60479;BME280;46321;48.398;11.754;2023-02-17T00:34:08;97444.19;;;6.02;64.08
60479;BME280;46321;48.398;11.754;2023-02-17T00:36:34;97454.00;;;6.00;64.15
60479;BME280;46321;48.398;11.754;2023-02-17T00:38:59;97446.97;;;6.00;64.02
60479;BME280;46321;48.398;11.754;2023-02-17T00:41:26;97450.66;;;5.98;64.62
60479;BME280;46321;48.398;11.754;2023-02-17T00:43:51;97454.22;;;5.96;64.62
60479;BME280;46321;48.398;11.754;2023-02-17T00:46:17;97439.44;;;5.95;64.83
60479;BME280;46321;48.398;11.754;2023-02-17T00:48:43;97442.88;;;5.96;65.05
60479;BME280;46321;48.398;11.754;2023-02-17T00:51:08;97436.69;;;5.97;64.40
60479;BME280;46321;48.398;11.754;2023-02-17T00:53:34;97443.47;;;6.00;64.51
60479;BME280;46321;48.398;11.754;2023-02-17T00:56:00;97436.53;;;5.99;64.44
60479;BME280;46321;48.398;11.754;2023-02-17T00:58:25;97438.47;;;5.96;64.44
60479;BME280;46321;48.398;11.754;2023-02-17T01:00:51;97434.88;;;5.98;64.72
60479;BME280;46321;48.398;11.754;2023-02-17T01:03:17;97438.22;;;6.00;63.88
60479;BME280;46321;48.398;11.754;2023-02-17T01:05:45;97440.84;;;6.00;64.44
60479;BME280;46321;48.398;11.754;2023-02-17T01:08:11;97436.81;;;5.95;63.97
60479;BME280;46321;48.398;11.754;2023-02-17T01:10:41;97441.69;;;6.00;63.97
60479;BME280;46321;48.398;11.754;2023-02-17T01:13:07;97434.63;;;6.01;64.46
60479;BME280;46321;48.398;11.754;2023-02-17T01:15:37;97437.53;;;5.98;64.08
60479;BME280;46321;48.398;11.754;2023-02-17T01:18:02;97432.97;;;6.00;64.67
60479;BME280;46321;48.398;11.754;2023-02-17T01:20:28;97433.06;;;5.98;64.69
60479;BME280;46321;48.398;11.754;2023-02-17T01:22:53;97429.63;;;5.98;65.19
60479;BME280;46321;48.398;11.754;2023-02-17T01:25:18;97428.09;;;5.95;65.29
60479;BME280;46321;48.398;11.754;2023-02-17T01:27:43;97429.72;;;5.96;65.26
60479;BME280;46321;48.398;11.754;2023-02-17T01:30:09;97426.41;;;5.94;65.16
60479;BME280;46321;48.398;11.754;2023-02-17T01:32:35;97424.13;;;5.89;64.30
60479;BME280;46321;48.398;11.754;2023-02-17T01:35:01;97426.28;;;5.95;64.11
60479;BME280;46321;48.398;11.754;2023-02-17T01:37:26;97430.72;;;5.95;64.68
60479;BME280;46321;48.398;11.754;2023-02-17T01:39:51;97429.63;;;5.98;64.17
60479;BME280;46321;48.398;11.754;2023-02-17T01:42:18;97434.41;;;5.92;65.50
60479;BME280;46321;48.398;11.754;2023-02-17T01:47:44;97422.81;;;5.95;65.28
60479;BME280;46321;48.398;11.754;2023-02-17T01:50:10;97419.22;;;5.96;64.51
60479;BME280;46321;48.398;11.754;2023-02-17T01:52:36;97419.13;;;5.98;64.23
60479;BME280;46321;48.398;11.754;2023-02-17T01:55:07;97415.53;;;5.99;64.37
60479;BME280;46321;48.398;11.754;2023-02-17T01:57:35;97410.16;;;6.00;64.75
60479;BME280;46321;48.398;11.754;2023-02-17T02:00:04;97409.06;;;6.03;64.06
60479;BME280;46321;48.398;11.754;2023-02-17T02:02:30;97406.56;;;6.01;64.02
60479;BME280;46321;48.398;11.754;2023-02-17T02:04:55;97408.94;;;6.04;63.61
60479;BME280;46321;48.398;11.754;2023-02-17T02:07:30;97414.94;;;6.06;63.94
60479;BME280;46321;48.398;11.754;2023-02-17T02:09:57;97414.06;;;6.06;63.67
60479;BME280;46321;48.398;11.754;2023-02-17T02:12:31;97421.63;;;6.11;63.61
60479;BME280;46321;48.398;11.754;2023-02-17T02:15:01;97412.06;;;6.10;64.31
60479;BME280;46321;48.398;11.754;2023-02-17T02:20:44;97419.34;;;6.17;63.34
60479;BME280;46321;48.398;11.754;2023-02-17T02:31:58;97408.19;;;6.25;63.29
60479;BME280;46321;48.398;11.754;2023-02-17T02:34:36;97388.44;;;6.31;62.79
60479;BME280;46321;48.398;11.754;2023-02-17T02:37:09;97396.06;;;6.34;62.32
60479;BME280;46321;48.398;11.754;2023-02-17T02:39:39;97387.94;;;6.37;62.10
60479;BME280;46321;48.398;11.754;2023-02-17T02:42:13;97387.81;;;6.39;62.05
60479;BME280;46321;48.398;11.754;2023-02-17T02:44:40;97382.53;;;6.39;61.79
60479;BME280;46321;48.398;11.754;2023-02-17T02:50:06;97379.28;;;6.47;61.59
60479;BME280;46321;48.398;11.754;2023-02-17T02:55:33;97368.97;;;6.55;61.27
60479;BME280;46321;48.398;11.754;2023-02-17T02:58:08;97369.66;;;6.57;61.56
60479;BME280;46321;48.398;11.754;2023-02-17T03:00:47;97364.28;;;6.59;61.57
60479;BME280;46321;48.398;11.754;2023-02-17T03:03:39;97367.50;;;6.62;61.17
60479;BME280;46321;48.398;11.754;2023-02-17T03:06:29;97364.59;;;6.66;61.33
60479;BME280;46321;48.398;11.754;2023-02-17T03:09:05;97367.94;;;6.68;61.57
60479;BME280;46321;48.398;11.754;2023-02-17T03:11:33;97358.25;;;6.68;61.34
60479;BME280;46321;48.398;11.754;2023-02-17T03:14:11;97353.81;;;6.69;61.22
60479;BME280;46321;48.398;11.754;2023-02-17T03:16:38;97350.94;;;6.72;61.21
60479;BME280;46321;48.398;11.754;2023-02-17T03:19:04;97359.53;;;6.74;61.38
60479;BME280;46321;48.398;11.754;2023-02-17T03:22:16;97352.34;;;6.76;61.30
60479;BME280;46321;48.398;11.754;2023-02-17T03:24:38;97349.34;;;6.81;61.75
60479;BME280;46321;48.398;11.754;2023-02-17T03:27:04;97350.16;;;6.81;61.51
60479;BME280;46321;48.398;11.754;2023-02-17T03:29:29;97346.16;;;6.87;61.46
60479;BME280;46321;48.398;11.754;2023-02-17T03:31:55;97339.94;;;6.88;61.05
60479;BME280;46321;48.398;11.754;2023-02-17T03:34:20;97344.09;;;6.91;61.31
60479;BME280;46321;48.398;11.754;2023-02-17T03:36:46;97343.00;;;6.93;61.55
60479;BME280;46321;48.398;11.754;2023-02-17T03:39:11;97340.00;;;6.98;61.52
60479;BME280;46321;48.398;11.754;2023-02-17T03:41:36;97346.78;;;7.01;61.26
60479;BME280;46321;48.398;11.754;2023-02-17T03:44:01;97341.38;;;7.02;61.28
60479;BME280;46321;48.398;11.754;2023-02-17T03:46:27;97345.16;;;7.09;61.23
60479;BME280;46321;48.398;11.754;2023-02-17T03:48:52;97344.34;;;7.09;61.51
60479;BME280;46321;48.398;11.754;2023-02-17T03:51:20;97340.22;;;7.16;61.30
60479;BME280;46321;48.398;11.754;2023-02-17T03:53:46;97336.03;;;7.14;61.17
60479;BME280;46321;48.398;11.754;2023-02-17T03:56:13;97341.75;;;7.19;61.28
60479;BME280;46321;48.398;11.754;2023-02-17T03:58:38;97337.88;;;7.23;60.71
60479;BME280;46321;48.398;11.754;2023-02-17T04:01:04;97328.16;;;7.24;60.77
60479;BME280;46321;48.398;11.754;2023-02-17T04:03:30;97327.22;;;7.25;60.59
60479;BME280;46321;48.398;11.754;2023-02-17T04:05:55;97321.41;;;7.31;59.87
60479;BME280;46321;48.398;11.754;2023-02-17T04:08:21;97305.19;;;7.36;58.83
60479;BME280;46321;48.398;11.754;2023-02-17T04:10:55;97307.88;;;7.46;58.76
60479;BME280;46321;48.398;11.754;2023-02-17T04:13:21;97307.03;;;7.45;58.52
60479;BME280;46321;48.398;11.754;2023-02-17T04:15:47;97313.44;;;7.52;58.07
60479;BME280;46321;48.398;11.754;2023-02-17T04:18:14;97316.63;;;7.56;57.86
60479;BME280;46321;48.398;11.754;2023-02-17T04:20:39;97325.91;;;7.60;57.74
60479;BME280;46321;48.398;11.754;2023-02-17T04:23:04;97319.53;;;7.63;57.77
60479;BME280;46321;48.398;11.754;2023-02-17T04:25:33;97329.13;;;7.64;57.88
60479;BME280;46321;48.398;11.754;2023-02-17T04:27:58;97324.97;;;7.61;57.81
60479;BME280;46321;48.398;11.754;2023-02-17T04:30:24;97319.53;;;7.63;57.47
60479;BME280;46321;48.398;11.754;2023-02-17T04:32:49;97325.50;;;7.65;57.20
60479;BME280;46321;48.398;11.754;2023-02-17T04:35:14;97321.91;;;7.66;56.92
60479;BME280;46321;48.398;11.754;2023-02-17T04:37:39;97327.75;;;7.70;56.30
60479;BME280;46321;48.398;11.754;2023-02-17T04:40:06;97318.28;;;7.67;56.56
60479;BME280;46321;48.398;11.754;2023-02-17T04:42:37;97330.53;;;7.68;56.31
60479;BME280;46321;48.398;11.754;2023-02-17T04:45:05;97323.56;;;7.67;56.32
60479;BME280;46321;48.398;11.754;2023-02-17T04:50:00;97315.00;;;7.75;55.63
60479;BME280;46321;48.398;11.754;2023-02-17T04:52:26;97318.19;;;7.78;55.66
60479;BME280;46321;48.398;11.754;2023-02-17T04:54:51;97305.94;;;7.77;55.08
60479;BME280;46321;48.398;11.754;2023-02-17T04:57:16;97315.53;;;7.78;55.51
60479;BME280;46321;48.398;11.754;2023-02-17T04:59:42;97313.59;;;7.81;55.75
60479;BME280;46321;48.398;11.754;2023-02-17T05:02:07;97316.78;;;7.84;55.26
60479;BME280;46321;48.398;11.754;2023-02-17T05:04:32;97312.22;;;7.86;55.38
60479;BME280;46321;48.398;11.754;2023-02-17T05:06:58;97310.56;;;7.85;55.45
60479;BME280;46321;48.398;11.754;2023-02-17T05:09:23;97308.75;;;7.86;55.37
60479;BME280;46321;48.398;11.754;2023-02-17T05:11:48;97302.66;;;7.85;55.26
60479;BME280;46321;48.398;11.754;2023-02-17T05:14:14;97303.34;;;7.87;55.05
60479;BME280;46321;48.398;11.754;2023-02-17T05:16:39;97303.19;;;7.89;55.38
60479;BME280;46321;48.398;11.754;2023-02-17T05:19:04;97298.63;;;7.91;55.39
60479;BME280;46321;48.398;11.754;2023-02-17T05:21:30;97308.06;;;7.94;55.56
60479;BME280;46321;48.398;11.754;2023-02-17T05:23:55;97303.63;;;7.94;55.40
60479;BME280;46321;48.398;11.754;2023-02-17T05:26:20;97298.09;;;7.97;55.24
60479;BME280;46321;48.398;11.754;2023-02-17T05:28:46;97307.94;;;7.95;55.34
60479;BME280;46321;48.398;11.754;2023-02-17T05:31:11;97312.06;;;7.98;55.27
60479;BME280;46321;48.398;11.754;2023-02-17T05:33:37;97306.00;;;7.97;55.62
60479;BME280;46321;48.398;11.754;2023-02-17T05:36:04;97305.00;;;7.98;55.24
60479;BME280;46321;48.398;11.754;2023-02-17T05:38:29;97310.81;;;8.02;54.99
60479;BME280;46321;48.398;11.754;2023-02-17T05:40:55;97315.41;;;8.00;54.94
60479;BME280;46321;48.398;11.754;2023-02-17T05:43:20;97304.31;;;7.96;55.38
60479;BME280;46321;48.398;11.754;2023-02-17T05:45:45;97304.16;;;7.98;55.05
60479;BME280;46321;48.398;11.754;2023-02-17T05:48:11;97309.31;;;7.99;55.06
60479;BME280;46321;48.398;11.754;2023-02-17T05:50:36;97304.06;;;7.99;55.43
60479;BME280;46321;48.398;11.754;2023-02-17T05:53:01;97311.66;;;8.02;55.28
60479;BME280;46321;48.398;11.754;2023-02-17T05:55:26;97315.00;;;8.05;55.16
60479;BME280;46321;48.398;11.754;2023-02-17T05:57:52;97318.03;;;8.00;55.55
60479;BME280;46321;48.398;11.754;2023-02-17T06:00:17;97315.00;;;8.05;55.47
60479;BME280;46321;48.398;11.754;2023-02-17T06:02:42;97320.00;;;8.08;55.03
60479;BME280;46321;48.398;11.754;2023-02-17T06:05:08;97318.47;;;8.15;55.78
60479;BME280;46321;48.398;11.754;2023-02-17T06:07:34;97319.72;;;8.11;55.86
60479;BME280;46321;48.398;11.754;2023-02-17T06:09:59;97328.59;;;8.10;56.15
60479;BME280;46321;48.398;11.754;2023-02-17T06:12:24;97329.44;;;8.10;56.31
60479;BME280;46321;48.398;11.754;2023-02-17T06:14:49;97325.97;;;8.20;56.32
60479;BME280;46321;48.398;11.754;2023-02-17T06:17:15;97331.09;;;8.21;56.36
60479;BME280;46321;48.398;11.754;2023-02-17T06:19:40;97331.09;;;8.21;56.38
60479;BME280;46321;48.398;11.754;2023-02-17T06:22:05;97336.94;;;8.15;57.01
60479;BME280;46321;48.398;11.754;2023-02-17T06:24:30;97327.47;;;8.22;56.89
60479;BME280;46321;48.398;11.754;2023-02-17T06:26:56;97328.63;;;8.20;57.13
60479;BME280;46321;48.398;11.754;2023-02-17T06:29:21;97327.47;;;8.22;57.30
60479;BME280;46321;48.398;11.754;2023-02-17T06:31:46;97330.81;;;8.24;57.52
60479;BME280;46321;48.398;11.754;2023-02-17T06:34:11;97338.88;;;8.33;57.55
60479;BME280;46321;48.398;11.754;2023-02-17T06:36:37;97326.38;;;8.35;57.92
60479;BME280;46321;48.398;11.754;2023-02-17T06:39:02;97323.75;;;8.35;58.12
60479;BME280;46321;48.398;11.754;2023-02-17T06:41:27;97325.13;;;8.39;58.60
60479;BME280;46321;48.398;11.754;2023-02-17T06:43:53;97325.25;;;8.47;58.84
60479;BME280;46321;48.398;11.754;2023-02-17T06:46:18;97328.56;;;8.50;59.37
60479;BME280;46321;48.398;11.754;2023-02-17T06:48:43;97334.69;;;8.50;59.47
60479;BME280;46321;48.398;11.754;2023-02-17T06:51:08;97328.28;;;8.53;59.60
60479;BME280;46321;48.398;11.754;2023-02-17T06:53:34;97336.06;;;8.54;59.86
60479;BME280;46321;48.398;11.754;2023-02-17T06:55:59;97337.59;;;8.57;59.71
60479;BME280;46321;48.398;11.754;2023-02-17T06:58:24;97334.84;;;8.58;59.98
60479;BME280;46321;48.398;11.754;2023-02-17T07:00:49;97324.84;;;8.62;60.18
60479;BME280;46321;48.398;11.754;2023-02-17T07:03:15;97336.63;;;8.58;60.25
60479;BME280;46321;48.398;11.754;2023-02-17T07:05:41;97335.94;;;8.66;60.12
60479;BME280;46321;48.398;11.754;2023-02-17T07:08:06;97326.50;;;8.63;60.19
60479;BME280;46321;48.398;11.754;2023-02-17T07:10:32;97329.97;;;8.64;60.43
60479;BME280;46321;48.398;11.754;2023-02-17T07:12:57;97329.69;;;8.67;60.32
60479;BME280;46321;48.398;11.754;2023-02-17T07:15:23;97330.13;;;8.62;60.58
60479;BME280;46321;48.398;11.754;2023-02-17T07:17:48;97337.91;;;8.64;60.28
60479;BME280;46321;48.398;11.754;2023-02-17T07:20:13;97336.78;;;8.66;60.46
60479;BME280;46321;48.398;11.754;2023-02-17T07:22:39;97332.88;;;8.70;60.30
60479;BME280;46321;48.398;11.754;2023-02-17T07:25:05;97338.41;;;8.77;60.00
60479;BME280;46321;48.398;11.754;2023-02-17T07:27:31;97332.16;;;8.78;60.03
60479;BME280;46321;48.398;11.754;2023-02-17T07:29:56;97325.06;;;8.79;60.00
60479;BME280;46321;48.398;11.754;2023-02-17T07:32:22;97332.97;;;8.89;59.54
60479;BME280;46321;48.398;11.754;2023-02-17T07:34:47;97333.34;;;8.94;59.92
60479;BME280;46321;48.398;11.754;2023-02-17T07:37:12;97328.06;;;9.04;59.43
60479;BME280;46321;48.398;11.754;2023-02-17T07:39:38;97335.69;;;9.07;59.44
60479;BME280;46321;48.398;11.754;2023-02-17T07:42:03;97333.06;;;9.07;59.26
60479;BME280;46321;48.398;11.754;2023-02-17T07:44:30;97331.38;;;9.06;59.14
60479;BME280;46321;48.398;11.754;2023-02-17T07:46:55;97341.50;;;9.11;58.69
60479;BME280;46321;48.398;11.754;2023-02-17T07:49:20;97336.47;;;9.18;58.86
60479;BME280;46321;48.398;11.754;2023-02-17T07:51:46;97348.00;;;9.16;58.77
60479;BME280;46321;48.398;11.754;2023-02-17T07:54:11;97348.31;;;9.13;58.67
60479;BME280;46321;48.398;11.754;2023-02-17T07:56:37;97340.41;;;9.13;58.50
60479;BME280;46321;48.398;11.754;2023-02-17T07:59:02;97341.91;;;9.16;58.41
60479;BME280;46321;48.398;11.754;2023-02-17T08:01:28;97343.97;;;9.22;60.27
60479;BME280;46321;48.398;11.754;2023-02-17T08:03:54;97344.09;;;9.21;60.57
60479;BME280;46321;48.398;11.754;2023-02-17T08:06:22;97341.09;;;9.15;61.27
60479;BME280;46321;48.398;11.754;2023-02-17T08:08:48;97342.03;;;9.14;60.88
60479;BME280;46321;48.398;11.754;2023-02-17T08:11:33;97334.00;;;9.16;59.95
60479;BME280;46321;48.398;11.754;2023-02-17T08:14:20;97334.94;;;9.25;59.63
60479;BME280;46321;48.398;11.754;2023-02-17T08:16:45;97328.38;;;9.29;59.56
60479;BME280;46321;48.398;11.754;2023-02-17T08:19:10;97341.41;;;9.41;59.26
60479;BME280;46321;48.398;11.754;2023-02-17T08:21:36;97340.50;;;9.50;58.81
60479;BME280;46321;48.398;11.754;2023-02-17T08:24:01;97345.69;;;9.70;58.99
60479;BME280;46321;48.398;11.754;2023-02-17T08:26:26;97341.78;;;9.92;57.75
60479;BME280;46321;48.398;11.754;2023-02-17T08:28:52;97335.56;;;10.20;56.92
60479;BME280;46321;48.398;11.754;2023-02-17T08:31:23;97334.22;;;10.34;56.29
60479;BME280;46321;48.398;11.754;2023-02-17T08:33:49;97326.16;;;10.44;55.48
60479;BME280;46321;48.398;11.754;2023-02-17T08:36:14;97331.94;;;10.84;55.10
60479;BME280;46321;48.398;11.754;2023-02-17T08:38:40;97333.88;;;11.36;53.60
60479;BME280;46321;48.398;11.754;2023-02-17T08:41:51;97336.59;;;11.61;52.30
60479;BME280;46321;48.398;11.754;2023-02-17T08:44:12;97343.22;;;11.56;52.17
60479;BME280;46321;48.398;11.754;2023-02-17T08:46:38;97344.69;;;11.51;53.07
60479;BME280;46321;48.398;11.754;2023-02-17T08:49:04;97347.06;;;11.27;53.49
60479;BME280;46321;48.398;11.754;2023-02-17T08:51:29;97340.31;;;11.33;53.56
60479;BME280;46321;48.398;11.754;2023-02-17T08:53:58;97347.47;;;11.41;53.35
60479;BME280;46321;48.398;11.754;2023-02-17T08:56:25;97349.88;;;11.26;53.81
60479;BME280;46321;48.398;11.754;2023-02-17T08:58:51;97354.38;;;10.98;54.06
60479;BME280;46321;48.398;11.754;2023-02-17T09:01:17;97361.84;;;11.03;53.72
60479;BME280;46321;48.398;11.754;2023-02-17T09:03:43;97351.06;;;10.96;53.80
60479;BME280;46321;48.398;11.754;2023-02-17T09:06:09;97337.13;;;10.94;53.93
60479;BME280;46321;48.398;11.754;2023-02-17T09:08:35;97341.50;;;10.77;54.56
60479;BME280;46321;48.398;11.754;2023-02-17T09:11:01;97357.81;;;10.64;55.13
60479;BME280;46321;48.398;11.754;2023-02-17T09:13:26;97359.44;;;10.65;55.32
60479;BME280;46321;48.398;11.754;2023-02-17T09:15:58;97369.28;;;10.73;55.61
60479;BME280;46321;48.398;11.754;2023-02-17T09:18:23;97366.84;;;10.80;55.88
60479;BME280;46321;48.398;11.754;2023-02-17T09:20:49;97377.84;;;11.20;56.15
60479;BME280;46321;48.398;11.754;2023-02-17T09:23:15;97354.75;;;11.90;54.51
60479;BME280;46321;48.398;11.754;2023-02-17T09:25:41;97363.66;;;11.81;54.18
60479;BME280;46321;48.398;11.754;2023-02-17T09:28:06;97363.84;;;11.79;54.57
60479;BME280;46321;48.398;11.754;2023-02-17T09:30:32;97374.91;;;11.66;55.00
60479;BME280;46321;48.398;11.754;2023-02-17T09:32:58;97373.38;;;11.55;55.72
60479;BME280;46321;48.398;11.754;2023-02-17T09:35:24;97372.31;;;11.40;55.71
60479;BME280;46321;48.398;11.754;2023-02-17T09:37:50;97378.69;;;11.55;55.61
60479;BME280;46321;48.398;11.754;2023-02-17T09:40:19;97389.09;;;11.49;55.43
60479;BME280;46321;48.398;11.754;2023-02-17T09:42:45;97381.63;;;11.44;55.75
60479;BME280;46321;48.398;11.754;2023-02-17T09:45:18;97384.63;;;11.22;55.97
60479;BME280;46321;48.398;11.754;2023-02-17T09:50:16;97378.41;;;11.32;56.26
60479;BME280;46321;48.398;11.754;2023-02-17T09:52:57;97365.34;;;11.90;56.06
60479;BME280;46321;48.398;11.754;2023-02-17T09:55:28;97353.66;;;12.85;53.29
60479;BME280;46321;48.398;11.754;2023-02-17T09:58:29;97354.47;;;15.01;49.41
60479;BME280;46321;48.398;11.754;2023-02-17T10:00:57;97355.28;;;15.99;45.40
60479;BME280;46321;48.398;11.754;2023-02-17T10:03:33;97342.72;;;16.87;43.36
60479;BME280;46321;48.398;11.754;2023-02-17T10:08:43;97340.88;;;18.90;39.03
60479;BME280;46321;48.398;11.754;2023-02-17T10:13:50;97337.97;;;19.05;37.73
60479;BME280;46321;48.398;11.754;2023-02-17T10:16:24;97348.31;;;18.74;37.53
60479;BME280;46321;48.398;11.754;2023-02-17T10:19:04;97353.44;;;19.23;36.36
60479;BME280;46321;48.398;11.754;2023-02-17T10:21:38;97340.63;;;20.24;36.28
60479;BME280;46321;48.398;11.754;2023-02-17T10:24:06;97347.69;;;20.76;34.24
60479;BME280;46321;48.398;11.754;2023-02-17T10:29:30;97327.28;;;21.69;32.54
60479;BME280;46321;48.398;11.754;2023-02-17T10:32:04;97332.69;;;22.31;31.28
60479;BME280;46321;48.398;11.754;2023-02-17T10:34:37;97321.53;;;22.82;29.79
60479;BME280;46321;48.398;11.754;2023-02-17T10:40:11;97330.34;;;23.67;28.87
60479;BME280;46321;48.398;11.754;2023-02-17T10:42:38;97313.53;;;22.87;30.07
60479;BME280;46321;48.398;11.754;2023-02-17T10:45:37;97317.81;;;22.40;30.82
60479;BME280;46321;48.398;11.754;2023-02-17T10:50:43;97321.56;;;21.96;30.64
60479;BME280;46321;48.398;11.754;2023-02-17T10:53:14;97316.78;;;22.65;29.99
60479;BME280;46321;48.398;11.754;2023-02-17T10:56:02;97335.44;;;22.12;29.95
60479;BME280;46321;48.398;11.754;2023-02-17T11:01:09;97315.56;;;20.30;33.10
60479;BME280;46321;48.398;11.754;2023-02-17T11:03:36;97328.66;;;19.80;34.42
60479;BME280;46321;48.398;11.754;2023-02-17T11:06:04;97322.13;;;18.76;35.47
60479;BME280;46321;48.398;11.754;2023-02-17T11:08:34;97326.41;;;18.16;36.95
60479;BME280;46321;48.398;11.754;2023-02-17T11:11:04;97320.91;;;17.61;37.97
60479;BME280;46321;48.398;11.754;2023-02-17T11:13:39;97331.06;;;16.95;39.69
60479;BME280;46321;48.398;11.754;2023-02-17T11:16:20;97310.94;;;16.70;40.22
60479;BME280;46321;48.398;11.754;2023-02-17T11:18:47;97307.22;;;16.71;40.68
60479;BME280;46321;48.398;11.754;2023-02-17T11:21:13;97313.00;;;17.04;40.13
60479;BME280;46321;48.398;11.754;2023-02-17T11:23:51;97305.66;;;16.48;41.14
60479;BME280;46321;48.398;11.754;2023-02-17T11:26:24;97306.78;;;16.39;41.33
60479;BME280;46321;48.398;11.754;2023-02-17T11:28:51;97303.59;;;16.29;41.85
60479;BME280;46321;48.398;11.754;2023-02-17T11:31:28;97306.13;;;15.93;42.64
60479;BME280;46321;48.398;11.754;2023-02-17T11:33:54;97296.63;;;15.68;43.39
60479;BME280;46321;48.398;11.754;2023-02-17T11:36:27;97291.97;;;15.93;42.73
60479;BME280;46321;48.398;11.754;2023-02-17T11:38:54;97299.34;;;15.53;43.73
60479;BME280;46321;48.398;11.754;2023-02-17T11:41:19;97283.56;;;15.74;43.93
60479;BME280;46321;48.398;11.754;2023-02-17T11:43:52;97263.81;;;15.90;43.84
60479;BME280;46321;48.398;11.754;2023-02-17T11:46:20;97268.91;;;15.32;44.17
60479;BME280;46321;48.398;11.754;2023-02-17T11:49:02;97274.16;;;15.26;44.71
60479;BME280;46321;48.398;11.754;2023-02-17T11:59:32;97262.69;;;14.80;46.18
60479;BME280;46321;48.398;11.754;2023-02-17T12:02:13;97269.00;;;14.63;46.33
60479;BME280;46321;48.398;11.754;2023-02-17T12:07:37;97263.13;;;14.53;47.52
60479;BME280;46321;48.398;11.754;2023-02-17T12:21:31;97266.75;;;14.22;48.72
60479;BME280;46321;48.398;11.754;2023-02-17T12:24:18;97250.09;;;14.04;49.28
60479;BME280;46321;48.398;11.754;2023-02-17T12:27:10;97248.19;;;14.13;49.10
60479;BME280;46321;48.398;11.754;2023-02-17T12:29:58;97266.22;;;14.03;49.41
60479;BME280;46321;48.398;11.754;2023-02-17T12:35:45;97258.22;;;14.03;50.70
60479;BME280;46321;48.398;11.754;2023-02-17T12:38:18;97249.13;;;13.97;50.50
60479;BME280;46321;48.398;11.754;2023-02-17T12:40:51;97251.97;;;13.95;51.02
60479;BME280;46321;48.398;11.754;2023-02-17T12:43:24;97259.28;;;13.93;50.97
60479;BME280;46321;48.398;11.754;2023-02-17T12:45:53;97262.41;;;13.73;51.00
60479;BME280;46321;48.398;11.754;2023-02-17T12:48:36;97260.38;;;13.84;50.95
60479;BME280;46321;48.398;11.754;2023-02-17T12:51:26;97261.56;;;13.81;50.58
60479;BME280;46321;48.398;11.754;2023-02-17T12:56:37;97238.59;;;13.80;51.26
60479;BME280;46321;48.398;11.754;2023-02-17T12:59:13;97246.28;;;13.99;50.91
60479;BME280;46321;48.398;11.754;2023-02-17T13:01:48;97251.50;;;13.92;50.72
60479;BME280;46321;48.398;11.754;2023-02-17T13:04:17;97268.06;;;13.79;51.39
60479;BME280;46321;48.398;11.754;2023-02-17T13:06:47;97256.81;;;13.68;51.58
60479;BME280;46321;48.398;11.754;2023-02-17T13:09:30;97248.25;;;13.49;51.34
60479;BME280;46321;48.398;11.754;2023-02-17T13:14:40;97254.84;;;13.30;51.67
60479;BME280;46321;48.398;11.754;2023-02-17T13:17:05;97249.03;;;13.26;51.85
60479;BME280;46321;48.398;11.754;2023-02-17T13:19:45;97259.75;;;13.10;52.73
60479;BME280;46321;48.398;11.754;2023-02-17T13:22:21;97249.81;;;13.03;52.65
60479;BME280;46321;48.398;11.754;2023-02-17T13:24:53;97251.44;;;13.04;52.39
60479;BME280;46321;48.398;11.754;2023-02-17T13:27:33;97248.50;;;12.99;52.89
60479;BME280;46321;48.398;11.754;2023-02-17T13:32:30;97246.00;;;12.98;53.13
60479;BME280;46321;48.398;11.754;2023-02-17T13:35:27;97246.69;;;12.91;53.42
60479;BME280;46321;48.398;11.754;2023-02-17T13:37:53;97241.53;;;12.98;54.02
60479;BME280;46321;48.398;11.754;2023-02-17T13:42:51;97255.63;;;12.99;54.15
60479;BME280;46321;48.398;11.754;2023-02-17T13:45:26;97254.47;;;12.93;54.46
60479;BME280;46321;48.398;11.754;2023-02-17T13:47:57;97251.53;;;12.79;54.86
60479;BME280;46321;48.398;11.754;2023-02-17T13:52:54;97255.13;;;12.95;55.03
60479;BME280;46321;48.398;11.754;2023-02-17T13:55:20;97251.53;;;12.88;55.36
60479;BME280;46321;48.398;11.754;2023-02-17T13:57:51;97238.75;;;12.75;55.62
60479;BME280;46321;48.398;11.754;2023-02-17T14:02:47;97252.72;;;12.68;56.60
60479;BME280;46321;48.398;11.754;2023-02-17T14:05:39;97264.50;;;12.74;56.76
60479;BME280;46321;48.398;11.754;2023-02-17T14:08:12;97255.72;;;12.74;56.84
60479;BME280;46321;48.398;11.754;2023-02-17T14:10:38;97260.22;;;12.65;57.91
60479;BME280;46321;48.398;11.754;2023-02-17T14:13:08;97266.84;;;12.69;57.25
60479;BME280;46321;48.398;11.754;2023-02-17T14:15:34;97255.56;;;12.67;57.41
60479;BME280;46321;48.398;11.754;2023-02-17T14:17:59;97258.91;;;12.61;58.61
60479;BME280;46321;48.398;11.754;2023-02-17T14:20:33;97267.00;;;12.59;59.74
60479;BME280;46321;48.398;11.754;2023-02-17T14:23:01;97255.91;;;12.55;60.01
60479;BME280;46321;48.398;11.754;2023-02-17T14:25:30;97255.78;;;12.40;60.41
60479;BME280;46321;48.398;11.754;2023-02-17T14:27:55;97264.88;;;12.46;61.02